createdAt,value
2022-12-13T00:01:53.094Z,58.30
2022-12-13T00:04:23.603Z,57.67
2022-12-13T00:06:56.538Z,65.70
2022-12-13T00:09:24.189Z,68.83
2022-12-13T00:11:54.716Z,56.33
2022-12-13T00:14:22.202Z,56.17
2022-12-13T00:16:50.600Z,51.73
2022-12-13T00:19:20.080Z,50.47
2022-12-13T00:21:49.402Z,66.63
2022-12-13T00:24:19.030Z,57.57
2022-12-13T00:26:47.269Z,49.53
2022-12-13T00:29:15.338Z,46.37
2022-12-13T00:34:30.034Z,46.07
2022-12-13T00:36:59.024Z,46.30
2022-12-13T00:39:26.684Z,43.20
2022-12-13T00:41:53.886Z,40.67
2022-12-13T00:44:22.229Z,47.60
2022-12-13T00:46:53.978Z,51.20
2022-12-13T00:49:21.101Z,46.93
2022-12-13T00:51:49.548Z,44.13
2022-12-13T00:54:18.505Z,56.40
2022-12-13T00:56:51.223Z,41.40
2022-12-13T00:59:20.992Z,44.23
2022-12-13T01:01:49.598Z,33.97
2022-12-13T01:04:16.951Z,41.17
2022-12-13T01:06:50.136Z,43.27
2022-12-13T01:09:25.484Z,35.33
2022-12-13T01:12:02.570Z,31.10
2022-12-13T01:14:30.866Z,42.20
2022-12-13T01:16:58.183Z,43.40
2022-12-13T01:19:28.116Z,42.30
2022-12-13T01:22:00.183Z,42.30
2022-12-13T01:24:28.126Z,43.77
2022-12-13T01:26:57.226Z,36.87
2022-12-13T01:29:26.585Z,37.60
2022-12-13T01:31:54.181Z,39.47
2022-12-13T01:34:26.667Z,43.43
2022-12-13T01:36:57.983Z,39.83
2022-12-13T01:39:27.510Z,39.03
2022-12-13T01:41:59.538Z,41.60
2022-12-13T01:45:01.273Z,37.00
2022-12-13T01:56:03.049Z,33.77
2022-12-13T01:58:31.260Z,30.10
2022-12-13T02:01:01.008Z,32.03
2022-12-13T02:03:28.493Z,32.70
2022-12-13T02:05:55.566Z,34.07
2022-12-13T02:08:28.935Z,34.77
2022-12-13T02:10:58.400Z,39.60
2022-12-13T02:13:25.434Z,33.27
2022-12-13T02:16:22.201Z,42.70
2022-12-13T02:19:23.125Z,42.60
2022-12-13T02:22:23.957Z,39.07
2022-12-13T02:25:03.673Z,35.33
2022-12-13T02:28:30.647Z,39.33
2022-12-13T02:31:12.620Z,35.50
2022-12-13T02:34:22.573Z,42.33
2022-12-13T02:37:21.285Z,41.47
2022-12-13T02:39:58.982Z,36.20
2022-12-13T02:43:14.877Z,41.27
2022-12-13T02:45:51.546Z,40.90
2022-12-13T02:48:29.023Z,36.77
2022-12-13T02:50:58.911Z,41.97
2022-12-13T02:53:26.776Z,34.27
2022-12-13T02:55:53.690Z,37.90
2022-12-13T02:58:27.480Z,36.07
2022-12-13T03:01:28.783Z,29.87
2022-12-13T03:04:27.172Z,31.97
2022-12-13T03:07:24.271Z,42.03
2022-12-13T03:10:22.787Z,35.77
2022-12-13T03:13:25.067Z,34.40
2022-12-13T03:16:22.770Z,36.63
2022-12-13T03:18:55.279Z,35.93
2022-12-13T03:21:22.962Z,36.10
2022-12-13T03:23:50.211Z,38.03
2022-12-13T03:26:27.378Z,33.57
2022-12-13T03:28:55.429Z,36.50
2022-12-13T03:31:23.788Z,31.47
2022-12-13T03:33:50.666Z,37.57
2022-12-13T03:36:26.146Z,36.03
2022-12-13T03:38:56.086Z,36.57
2022-12-13T03:41:32.237Z,33.27
2022-12-13T03:44:05.437Z,32.30
2022-12-13T03:46:32.633Z,36.70
2022-12-13T03:48:59.783Z,30.70
2022-12-13T03:51:27.466Z,30.93
2022-12-13T03:53:54.269Z,37.43
2022-12-13T03:56:21.193Z,32.43
2022-12-13T03:58:48.107Z,34.10
2022-12-13T04:01:17.264Z,33.87
2022-12-13T04:03:46.994Z,33.73
2022-12-13T04:06:22.910Z,35.67
2022-12-13T04:08:52.429Z,39.13
2022-12-13T04:11:42.853Z,34.73
2022-12-13T04:14:12.168Z,35.33
2022-12-13T04:16:48.526Z,38.30
2022-12-13T04:19:15.365Z,36.13
2022-12-13T04:21:50.855Z,31.57
2022-12-13T04:24:17.775Z,35.23
2022-12-13T04:26:44.575Z,38.70
2022-12-13T04:29:11.410Z,42.07
2022-12-13T04:31:39.003Z,35.20
2022-12-13T04:34:08.436Z,37.03
2022-12-13T04:36:36.696Z,37.57
2022-12-13T04:39:22.047Z,33.53
2022-12-13T04:41:52.420Z,40.07
2022-12-13T04:44:27.600Z,31.83
2022-12-13T04:46:56.035Z,42.30
2022-12-13T04:49:30.051Z,42.33
2022-12-13T04:52:01.348Z,42.67
2022-12-13T04:54:36.149Z,28.87
2022-12-13T04:57:06.503Z,36.23
2022-12-13T04:59:33.647Z,36.60
2022-12-13T05:02:00.539Z,34.43
2022-12-13T05:04:32.384Z,31.53
2022-12-13T05:07:00.379Z,33.87
2022-12-13T05:09:27.184Z,28.33
2022-12-13T05:12:01.709Z,28.00
2022-12-13T05:14:33.181Z,28.17
2022-12-13T05:17:01.663Z,28.47
2022-12-13T05:19:31.257Z,33.23
2022-12-13T05:22:02.326Z,33.60
2022-12-13T05:24:31.426Z,31.03
2022-12-13T05:26:59.647Z,32.77
2022-12-13T05:29:27.806Z,31.83
2022-12-13T05:31:54.739Z,30.17
2022-12-13T05:34:21.696Z,34.23
2022-12-13T05:36:48.570Z,29.57
2022-12-13T05:39:27.722Z,32.83
2022-12-13T05:42:02.413Z,31.13
2022-12-13T05:44:31.864Z,34.30
2022-12-13T05:46:59.321Z,30.20
2022-12-13T05:49:29.269Z,31.07
2022-12-13T05:51:56.074Z,35.83
2022-12-13T05:54:23.087Z,44.00
2022-12-13T05:56:49.894Z,36.67
2022-12-13T05:59:16.837Z,34.67
2022-12-13T06:01:44.224Z,31.10
2022-12-13T06:04:12.914Z,36.67
2022-12-13T06:06:51.080Z,28.23
2022-12-13T06:09:19.192Z,33.87
2022-12-13T06:11:46.100Z,36.20
2022-12-13T06:14:21.900Z,41.27
2022-12-13T06:16:51.470Z,32.47
2022-12-13T06:19:19.376Z,40.30
2022-12-13T06:21:46.708Z,23.73
2022-12-13T06:24:22.016Z,29.07
2022-12-13T06:26:50.653Z,31.83
2022-12-13T06:29:24.167Z,30.07
2022-12-13T06:32:02.389Z,28.47
2022-12-13T06:34:36.814Z,31.80
2022-12-13T06:37:08.501Z,30.47
2022-12-13T06:39:35.623Z,31.40
2022-12-13T06:42:13.661Z,32.03
2022-12-13T06:45:04.848Z,33.43
2022-12-13T06:47:32.651Z,37.07
2022-12-13T06:50:05.256Z,42.73
2022-12-13T06:52:33.391Z,39.27
2022-12-13T06:55:00.272Z,35.37
2022-12-13T06:57:27.163Z,37.13
2022-12-13T06:59:53.990Z,32.07
2022-12-13T07:02:25.523Z,26.47
2022-12-13T07:04:53.662Z,28.80
2022-12-13T07:07:20.565Z,33.10
2022-12-13T07:09:47.624Z,34.70
2022-12-13T07:12:15.711Z,39.03
2022-12-13T07:14:44.203Z,34.47
2022-12-13T07:17:11.248Z,31.97
2022-12-13T07:19:39.817Z,34.97
2022-12-13T07:22:09.663Z,30.50
2022-12-13T07:24:43.955Z,31.80
2022-12-13T07:27:10.967Z,28.53
2022-12-13T07:29:39.835Z,26.93
2022-12-13T07:32:12.385Z,35.13
2022-12-13T07:34:40.387Z,24.43
2022-12-13T07:37:30.595Z,35.37
2022-12-13T07:40:03.019Z,28.50
2022-12-13T07:42:31.229Z,29.93
2022-12-13T07:44:58.105Z,25.40
2022-12-13T07:47:31.009Z,33.73
2022-12-13T07:49:58.630Z,29.03
2022-12-13T07:52:25.418Z,9.17
2022-12-13T07:54:52.207Z,21.73
2022-12-13T07:57:19.048Z,24.30
2022-12-13T07:59:45.989Z,28.40
2022-12-13T08:02:13.737Z,28.07
2022-12-13T08:04:43.963Z,24.83
2022-12-13T08:07:11.770Z,26.50
2022-12-13T08:09:38.761Z,19.00
2022-12-13T08:12:06.182Z,27.33
2022-12-13T08:14:33.309Z,22.60
2022-12-13T08:17:00.483Z,29.50
2022-12-13T08:19:27.647Z,18.33
2022-12-13T08:21:58.332Z,30.73
2022-12-13T08:24:28.664Z,20.50
2022-12-13T08:27:01.079Z,23.50
2022-12-13T08:29:34.276Z,26.60
2022-12-13T08:32:11.794Z,26.23
2022-12-13T08:34:39.471Z,25.37
2022-12-13T08:37:06.615Z,11.67
2022-12-13T08:39:38.601Z,28.43
2022-12-13T08:42:19.311Z,30.00
2022-12-13T08:44:52.685Z,29.07
2022-12-13T08:47:26.772Z,28.50
2022-12-13T08:50:02.611Z,21.97
2022-12-13T08:52:43.086Z,21.73
2022-12-13T08:55:15.254Z,23.13
2022-12-13T08:57:43.707Z,22.33
2022-12-13T09:00:16.355Z,21.80
2022-12-13T09:02:44.042Z,16.17
2022-12-13T09:05:33.255Z,17.47
2022-12-13T09:08:23.476Z,24.07
2022-12-13T09:11:10.810Z,14.63
2022-12-13T09:13:48.798Z,24.27
2022-12-13T09:16:24.834Z,22.27
2022-12-13T09:18:55.531Z,19.63
2022-12-13T09:21:31.803Z,19.00
2022-12-13T09:24:01.376Z,22.17
2022-12-13T09:26:29.154Z,20.53
2022-12-13T09:29:11.828Z,21.03
2022-12-13T09:31:40.620Z,12.93
2022-12-13T09:34:10.076Z,19.87
2022-12-13T09:36:37.895Z,24.43
2022-12-13T09:39:08.710Z,24.07
2022-12-13T09:41:45.717Z,25.20
2022-12-13T09:44:31.241Z,20.93
2022-12-13T09:47:13.350Z,14.90
2022-12-13T09:49:52.644Z,29.70
2022-12-13T09:52:24.806Z,30.33
2022-12-13T09:54:56.645Z,26.73
2022-12-13T09:57:33.971Z,19.37
2022-12-13T10:00:07.100Z,24.83
2022-12-13T10:02:49.625Z,25.73
2022-12-13T10:05:33.781Z,23.53
2022-12-13T10:08:23.108Z,25.63
2022-12-13T10:10:53.035Z,28.83
2022-12-13T10:13:21.981Z,24.33
2022-12-13T10:15:59.277Z,26.60
2022-12-13T10:18:38.568Z,31.03
2022-12-13T10:21:15.055Z,27.40
2022-12-13T10:24:22.627Z,27.03
2022-12-13T10:26:39.582Z,23.50
2022-12-13T10:29:10.236Z,27.63
2022-12-13T10:31:49.537Z,22.57
2022-12-13T10:34:29.768Z,25.67
2022-12-13T10:36:59.844Z,23.37
2022-12-13T10:39:44.170Z,24.67
2022-12-13T10:42:22.684Z,27.07
2022-12-13T10:45:23.366Z,22.90
2022-12-13T10:47:51.194Z,29.67
2022-12-13T10:50:29.702Z,22.53
2022-12-13T10:53:00.113Z,26.03
2022-12-13T10:55:40.445Z,22.47
2022-12-13T10:58:21.380Z,26.43
2022-12-13T11:00:49.384Z,21.47
2022-12-13T11:03:34.236Z,21.07
2022-12-13T11:06:15.752Z,26.00
2022-12-13T11:09:01.584Z,24.50
2022-12-13T11:11:40.770Z,17.63
2022-12-13T11:14:21.377Z,23.37
2022-12-13T11:17:08.796Z,11.53
2022-12-13T11:19:43.665Z,26.03
2022-12-13T11:22:30.265Z,19.17
2022-12-13T11:25:07.809Z,18.90
2022-12-13T11:28:26.313Z,27.47
2022-12-13T11:31:05.048Z,25.90
2022-12-13T11:34:21.739Z,12.07
2022-12-13T11:37:32.250Z,19.57
2022-12-13T11:40:05.659Z,26.40
2022-12-13T11:42:46.610Z,17.83
2022-12-13T11:45:22.347Z,23.93
2022-12-13T11:48:09.536Z,16.37
2022-12-13T11:50:50.148Z,23.20
2022-12-13T11:53:25.080Z,26.00
2022-12-13T11:56:04.325Z,22.63
2022-12-13T11:59:26.549Z,23.17
2022-12-13T12:02:05.078Z,5.93
2022-12-13T12:04:53.711Z,22.70
2022-12-13T12:08:05.377Z,14.10
2022-12-13T12:10:49.675Z,15.03
2022-12-13T12:13:29.627Z,11.00
2022-12-13T12:16:08.197Z,32.83
2022-12-13T12:18:35.278Z,19.87
2022-12-13T12:21:13.822Z,19.77
2022-12-13T12:23:53.386Z,22.13
2022-12-13T12:26:57.934Z,16.57
2022-12-13T12:29:53.362Z,5.80
2022-12-13T12:32:47.120Z,15.43
2022-12-13T12:35:55.744Z,9.10
2022-12-13T12:38:54.735Z,13.77
2022-12-13T12:41:45.066Z,11.67
2022-12-13T12:44:31.421Z,22.83
2022-12-13T12:50:42.746Z,19.47
2022-12-13T12:53:51.914Z,20.47
2022-12-13T12:56:33.594Z,23.20
2022-12-13T12:59:41.157Z,16.50
2022-12-13T13:03:01.541Z,17.03
2022-12-13T13:05:46.368Z,18.87
2022-12-13T13:08:59.164Z,17.87
2022-12-13T13:11:33.445Z,8.20
2022-12-13T13:14:42.692Z,12.63
2022-12-13T13:17:24.579Z,13.20
2022-12-13T13:20:24.722Z,11.03
2022-12-13T13:23:17.663Z,15.77
2022-12-13T13:26:16.076Z,13.47
2022-12-13T13:28:40.555Z,5.50
2022-12-13T13:31:10.193Z,7.00
2022-12-13T13:33:56.838Z,15.87
2022-12-13T13:36:42.049Z,11.00
2022-12-13T13:39:40.066Z,6.50
2022-12-13T13:43:04.032Z,13.20
2022-12-13T13:45:50.066Z,14.77
2022-12-13T13:48:55.648Z,13.13
2022-12-13T13:51:49.383Z,12.50
2022-12-13T13:55:29.774Z,15.47
2022-12-13T13:58:40.225Z,12.60
2022-12-13T14:01:51.961Z,7.27
2022-12-13T14:04:58.419Z,12.70
2022-12-13T14:07:56.037Z,11.83
2022-12-13T14:10:32.243Z,13.03
2022-12-13T14:14:22.498Z,12.10
2022-12-13T14:17:37.508Z,12.07
2022-12-13T14:20:38.215Z,14.73
2022-12-13T14:23:50.846Z,9.60
2022-12-13T14:26:42.718Z,15.93
2022-12-13T14:29:29.706Z,17.20
2022-12-13T14:33:03.586Z,16.47
2022-12-13T14:35:32.952Z,21.80
2022-12-13T14:38:06.875Z,20.63
2022-12-13T14:40:36.185Z,16.13
2022-12-13T14:43:03.832Z,19.43
2022-12-13T14:45:36.910Z,18.33
2022-12-13T14:48:28.492Z,15.87
2022-12-13T14:50:56.907Z,13.67
2022-12-13T14:53:29.634Z,17.60
2022-12-13T14:56:27.742Z,13.40
2022-12-13T14:59:03.296Z,13.70
2022-12-13T15:01:37.202Z,14.17
2022-12-13T15:04:27.222Z,15.17
2022-12-13T15:07:15.799Z,13.20
2022-12-13T15:09:45.535Z,13.90
2022-12-13T15:12:25.087Z,14.10
2022-12-13T15:15:07.420Z,14.40
2022-12-13T15:17:36.618Z,16.33
2022-12-13T15:20:23.215Z,14.67
2022-12-13T15:23:02.665Z,13.87
2022-12-13T15:25:30.112Z,14.87
2022-12-13T15:27:57.981Z,15.13
2022-12-13T15:30:30.249Z,15.53
2022-12-13T15:33:30.846Z,13.13
2022-12-13T15:36:15.535Z,21.53
2022-12-13T15:39:01.758Z,20.40
2022-12-13T15:41:33.337Z,15.80
2022-12-13T15:44:15.840Z,16.20
2022-12-13T15:46:47.662Z,18.07
2022-12-13T15:49:41.105Z,23.30
2022-12-13T15:52:16.764Z,19.00
2022-12-13T15:55:00.952Z,19.07
2022-12-13T15:57:59.319Z,19.50
2022-12-13T16:00:34.578Z,18.33
2022-12-13T16:03:12.475Z,15.43
2022-12-13T16:05:52.018Z,22.17
2022-12-13T16:08:37.485Z,23.70
2022-12-13T16:11:08.558Z,24.73
2022-12-13T16:13:37.890Z,19.53
2022-12-13T16:16:28.134Z,16.13
2022-12-13T16:18:59.284Z,18.00
2022-12-13T16:21:28.428Z,13.87
2022-12-13T16:23:55.231Z,19.30
2022-12-13T16:26:26.272Z,19.97
2022-12-13T16:28:55.266Z,23.07
2022-12-13T16:31:26.879Z,31.27
2022-12-13T16:33:53.777Z,24.90
2022-12-13T16:36:20.638Z,27.47
2022-12-13T16:38:47.639Z,25.00
2022-12-13T16:41:15.624Z,29.40
2022-12-13T16:44:02.210Z,28.80
2022-12-13T16:47:13.710Z,22.33
2022-12-13T16:49:30.615Z,22.07
2022-12-13T16:51:57.840Z,20.70
2022-12-13T16:54:26.337Z,21.43
2022-12-13T16:56:54.508Z,21.63
2022-12-13T16:59:25.179Z,17.40
2022-12-13T17:01:55.809Z,15.47
2022-12-13T17:04:27.388Z,16.30
2022-12-13T17:06:55.651Z,17.57
2022-12-13T17:09:26.641Z,16.70
2022-12-13T17:11:55.366Z,14.87
2022-12-13T17:14:22.804Z,13.33
2022-12-13T17:16:50.114Z,14.80
2022-12-13T17:19:21.473Z,11.43
2022-12-13T17:21:48.853Z,15.57
2022-12-13T17:24:16.493Z,7.97
2022-12-13T17:26:54.265Z,13.17
2022-12-13T17:29:24.454Z,14.03
2022-12-13T17:31:52.229Z,13.47
2022-12-13T17:34:19.235Z,13.20
2022-12-13T17:36:46.090Z,14.63
2022-12-13T17:39:12.934Z,11.50
2022-12-13T17:41:41.782Z,10.67
2022-12-13T17:44:08.965Z,9.73
2022-12-13T17:46:41.333Z,13.40
2022-12-13T17:49:21.270Z,14.97
2022-12-13T17:51:51.703Z,12.30
2022-12-13T17:54:19.544Z,15.60
2022-12-13T17:56:46.907Z,13.33
2022-12-13T17:59:16.204Z,15.83
2022-12-13T18:01:44.482Z,12.63
2022-12-13T18:04:17.717Z,12.07
2022-12-13T18:06:44.827Z,14.13
2022-12-13T18:09:13.129Z,14.37
2022-12-13T18:11:43.178Z,14.33
2022-12-13T18:14:10.091Z,17.20
2022-12-13T18:16:38.715Z,14.87
2022-12-13T18:19:12.949Z,13.27
2022-12-13T18:21:40.889Z,14.17
2022-12-13T18:24:10.772Z,17.83
2022-12-13T18:26:38.001Z,16.47
2022-12-13T18:29:06.613Z,17.40
2022-12-13T18:31:36.906Z,14.33
2022-12-13T18:34:05.830Z,15.87
2022-12-13T18:36:37.174Z,14.87
2022-12-13T18:39:04.527Z,17.33
2022-12-13T18:41:33.088Z,15.10
2022-12-13T18:44:08.054Z,14.73
2022-12-13T18:46:40.426Z,15.10
2022-12-13T18:49:10.435Z,14.03
2022-12-13T18:51:37.965Z,14.77
2022-12-13T18:54:05.476Z,20.13
2022-12-13T18:56:32.259Z,18.97
2022-12-13T18:58:59.726Z,16.77
2022-12-13T19:01:27.906Z,18.57
2022-12-13T19:03:54.916Z,16.83
2022-12-13T19:06:25.416Z,16.07
2022-12-13T19:08:56.486Z,14.87
2022-12-13T19:11:27.195Z,14.80
2022-12-13T19:13:55.069Z,15.97
2022-12-13T19:16:23.561Z,19.60
2022-12-13T19:18:50.545Z,14.77
2022-12-13T19:21:21.373Z,19.53
2022-12-13T19:23:55.839Z,21.43
2022-12-13T19:26:24.775Z,23.93
2022-12-13T19:28:51.604Z,19.43
2022-12-13T19:31:18.516Z,17.27
2022-12-13T19:33:45.430Z,20.07
2022-12-13T19:36:16.551Z,18.30
2022-12-13T19:38:44.356Z,15.27
2022-12-13T19:41:15.875Z,15.70
2022-12-13T19:43:52.074Z,14.90
2022-12-13T19:46:20.256Z,13.47
2022-12-13T19:48:49.651Z,14.07
2022-12-13T19:51:19.793Z,18.17
2022-12-13T19:53:50.839Z,15.83
2022-12-13T19:56:21.238Z,14.67
2022-12-13T19:58:51.188Z,17.13
2022-12-13T20:01:21.167Z,16.80
2022-12-13T20:03:48.137Z,12.90
2022-12-13T20:06:20.850Z,16.47
2022-12-13T20:08:48.430Z,17.27
2022-12-13T20:11:21.412Z,16.93
2022-12-13T20:13:58.383Z,18.27
2022-12-13T20:16:27.196Z,16.13
2022-12-13T20:18:56.953Z,13.43
2022-12-13T20:21:27.756Z,14.30
2022-12-13T20:23:55.404Z,13.73
2022-12-13T20:26:25.983Z,15.67
2022-12-13T20:28:53.099Z,15.13
2022-12-13T20:31:24.306Z,17.93
2022-12-13T20:34:02.295Z,19.00
2022-12-13T20:36:32.832Z,21.97
2022-12-13T20:39:01.968Z,18.53
2022-12-13T20:41:31.792Z,19.37
2022-12-13T20:44:01.229Z,19.77
2022-12-13T20:46:30.095Z,23.90
2022-12-13T20:49:00.356Z,20.13
2022-12-13T20:51:31.734Z,14.83
2022-12-13T20:53:59.217Z,14.37
2022-12-13T20:56:37.685Z,17.13
2022-12-13T20:59:08.021Z,15.60
2022-12-13T21:01:40.680Z,18.83
2022-12-13T21:04:09.978Z,17.90
2022-12-13T21:06:40.658Z,16.60
2022-12-13T21:09:09.758Z,16.07
2022-12-13T21:11:41.158Z,16.63
2022-12-13T21:14:22.709Z,15.50
2022-12-13T21:16:52.351Z,15.23
2022-12-13T21:19:27.837Z,15.87
2022-12-13T21:21:56.187Z,19.20
2022-12-13T21:24:26.145Z,23.53
2022-12-13T21:26:56.359Z,20.07
2022-12-13T21:29:23.632Z,23.03
2022-12-13T21:31:51.252Z,22.43
2022-12-13T21:34:19.468Z,19.33
2022-12-13T21:36:50.106Z,18.77
2022-12-13T21:39:20.916Z,17.73
2022-12-13T21:41:47.764Z,17.80
2022-12-13T21:44:17.081Z,16.83
2022-12-13T21:49:31.642Z,17.40
2022-12-13T21:51:58.555Z,21.10
2022-12-13T21:54:25.450Z,13.33
2022-12-13T21:57:10.776Z,18.10
2022-12-13T21:59:37.610Z,18.80
2022-12-13T22:02:15.875Z,16.50
2022-12-13T22:04:55.522Z,16.87
2022-12-13T22:07:30.673Z,17.27
2022-12-13T22:10:00.699Z,16.77
2022-12-13T22:12:41.730Z,13.70
2022-12-13T22:15:13.101Z,19.47
2022-12-13T22:17:41.055Z,15.77
2022-12-13T22:20:12.513Z,13.33
2022-12-13T22:22:41.963Z,12.97
2022-12-13T22:25:09.580Z,17.13
2022-12-13T22:27:36.591Z,19.60
2022-12-13T22:30:04.561Z,16.70
2022-12-13T22:32:32.291Z,14.50
2022-12-13T22:34:59.398Z,13.50
2022-12-13T22:37:27.471Z,16.17
2022-12-13T22:39:54.362Z,17.27
2022-12-13T22:42:24.359Z,16.27
2022-12-13T22:44:51.385Z,16.33
2022-12-13T22:47:20.949Z,15.67
2022-12-13T22:49:49.949Z,14.90
2022-12-13T22:52:18.215Z,13.77
2022-12-13T22:54:45.052Z,13.90
2022-12-13T22:57:12.005Z,16.63
2022-12-13T22:59:39.118Z,14.77
2022-12-13T23:02:06.124Z,14.07
2022-12-13T23:04:33.259Z,13.87
2022-12-13T23:07:00.167Z,13.90
2022-12-13T23:09:27.049Z,15.17
2022-12-13T23:12:12.823Z,14.80
2022-12-13T23:14:39.842Z,13.53
2022-12-13T23:17:07.195Z,13.33
2022-12-13T23:19:48.991Z,13.30
2022-12-13T23:22:25.763Z,9.37
2022-12-13T23:24:53.471Z,17.47
2022-12-13T23:27:22.796Z,12.03
2022-12-13T23:29:50.141Z,12.03
2022-12-13T23:32:17.355Z,16.30
2022-12-13T23:34:44.105Z,11.93
2022-12-13T23:37:13.865Z,13.97
2022-12-13T23:39:41.401Z,12.00
2022-12-13T23:42:14.101Z,12.47
2022-12-13T23:44:42.016Z,13.47
2022-12-13T23:47:09.059Z,13.53
2022-12-13T23:49:36.432Z,12.00
2022-12-13T23:52:04.957Z,12.07
2022-12-13T23:54:31.819Z,10.97
2022-12-13T23:56:58.716Z,10.57
2022-12-13T23:59:27.668Z,10.23
